Friday, January 19, 2018, 2:26 AM EST
Back to Local

KIZG, Fryeburg Eastern Slopes Rgnl

Location: Fryeburg, ME, United States Lat: 43.983
Local Time: 2:26 AM EST ( 7:26 GMT) Lon: -70.95
Time Zone: US/Eastern Elev: 452 ft

Show me the last for .
Show Decoded

2018-01-19 01:54 METAR KIZG 190654Z AUTO 00000KT 10SM CLR M14/M15 A2986 RMK AO2 SLP120 T11441150
                 =
2018-01-19 00:54 METAR KIZG 190554Z AUTO 00000KT 10SM CLR M14/M14 A2986 RMK AO2 SLP121 I6000
                 T11391144 11078 21144 58010 =
2018-01-18 23:54 METAR KIZG 190454Z AUTO 00000KT 10SM CLR M14/M14 A2988 RMK AO2 SLP127 T11391144
                 410111139 =
2018-01-18 22:54 METAR KIZG 190354Z AUTO 00000KT 10SM CLR M13/M14 A2990 RMK AO2 SLP133 I1000
                 T11331144 =
2018-01-18 21:54 METAR KIZG 190254Z AUTO 00000KT 10SM CLR M13/M13 A2989 RMK AO2 SLP132 I1000
                 I3000 T11281133 52008 =
2018-01-18 20:54 METAR KIZG 190154Z AUTO 00000KT 10SM CLR M11/M12 A2988 RMK AO2 SLP129 I1000
                 T11061117 =
2018-01-18 19:54 METAR KIZG 190054Z AUTO 00000KT 10SM CLR M09/M11 A2988 RMK AO2 SLP127 I1000
                 T10941106 =
2018-01-18 18:54 METAR KIZG 182354Z AUTO 00000KT 10SM CLR M08/M09 A2987 RMK AO2 SLP124 I1000
                 I6000 T10831089 11011 21089 53014 =
2018-01-18 17:54 METAR KIZG 182254Z AUTO 00000KT 10SM FEW033 M06/M07 A2985 RMK AO2 SLP118
                 T10611067 =
2018-01-18 16:54 METAR KIZG 182154Z AUTO 00000KT 10SM OVC033 M03/M07 A2984 RMK AO2 SLP113
                 T10331072 =
2018-01-18 15:54 METAR KIZG 182054Z AUTO 00000KT 10SM OVC034 M02/M07 A2983 RMK AO2 SLP107
                 T10171067 55007 =
2018-01-18 14:54 METAR KIZG 181954Z AUTO 36006KT 10SM BKN035 M01/M07 A2982 RMK AO2 SLP107
                 T10111072 =
2018-01-18 13:54 METAR KIZG 181854Z AUTO 00000KT 10SM CLR M02/M08 A2984 RMK AO2 SLP111 T10171083
                 =
2018-01-18 12:54 METAR KIZG 181754Z AUTO 00000KT 10SM CLR M02/M07 A2985 RMK AO2 SLP115 T10221067
                 11022 21133 58021 =
2018-01-18 11:54 METAR KIZG 181654Z AUTO 00000KT 10SM CLR M04/M06 A2988 RMK AO2 SLP124 T10441061
                 =
2018-01-18 10:54 METAR KIZG 181554Z AUTO 00000KT 10SM FEW005 M06/M06 A2991 RMK AO2 SLP136
                 T10561056 =
2018-01-18 10:44 METAR KIZG 181544Z AUTO 00000KT 10SM BKN005 M06/M06 A2991 RMK AO2 T10561056 =
2018-01-18 09:54 METAR KIZG 181454Z AUTO 00000KT 9SM OVC004 M07/M07 A2992 RMK AO2 SLP140
                 T10671067 50001 =
2018-01-18 09:26 METAR KIZG 181426Z AUTO 00000KT 10SM OVC004 M07/M07 A2992 RMK AO2 T10721072 =
2018-01-18 08:54 METAR KIZG 181354Z AUTO 20003KT 10SM OVC003 M09/M09 A2992 RMK AO2 SLP142
                 T10891089 =
2018-01-18 08:11 METAR KIZG 181311Z AUTO 00000KT 4SM BR OVC002 M11/M11 A2992 RMK AO2 T11061106 =
2018-01-18 08:07 METAR KIZG 181307Z AUTO 26003KT 1 1/2SM BR OVC002 M11/M11 A2992 RMK AO2
                 T11111111 =
2018-01-18 07:54 METAR KIZG 181254Z AUTO 00000KT 1/2SM FZFG VV002 M12/M12 A2992 RMK AO2 SLP141
                 T11221122 =
2018-01-18 07:43 METAR KIZG 181243Z AUTO 00000KT 1SM BR VV002 M13/M13 A2992 RMK AO2 T11281128 =
2018-01-18 07:01 METAR KIZG 181201Z AUTO 00000KT 1/4SM FZFG VV002 M13/M13 A2992 RMK AO2 T11281128
                 $ =
2018-01-18 06:54 METAR KIZG 181154Z AUTO 00000KT 1/2SM FZFG VV002 M12/M13 A2992 RMK AO2 SLP140
                 70006 T11221128 11067 21128 58001 $ =
2018-01-18 06:51 METAR KIZG 181151Z AUTO 00000KT 1/2SM FZFG VV002 M13/M13 A2992 RMK AO2 $ =
2018-01-18 06:38 METAR KIZG 181138Z AUTO 00000KT 1/4SM FZFG VV002 M12/M12 A2992 RMK AO2 T11221122
                 $ =
2018-01-18 06:30 METAR KIZG 181130Z AUTO 00000KT 1 1/4SM BR OVC002 M12/M12 A2992 RMK AO2 VIS
                 1/2V5 T11221122 $ =
2018-01-18 06:24 METAR KIZG 181124Z AUTO 00000KT 2 1/2SM BR OVC002 M12/M12 A2992 RMK AO2 VIS 1V5
                 T11171122 $ =
2018-01-18 06:21 METAR KIZG 181121Z AUTO 00000KT 1SM BR VV002 M12/M12 A2992 RMK AO2 VIS 1/4V5
                 T11221122 $ =
2018-01-18 06:01 METAR KIZG 181101Z AUTO 00000KT 1/4SM FZFG VV002 M12/M12 A2992 RMK AO2 T11171117
                 $ =
2018-01-18 05:54 METAR KIZG 181054Z AUTO 00000KT 1/2SM FZFG VV002 M11/M11 A2992 RMK AO2 SLP141
                 T11111111 $ =
2018-01-18 05:51 METAR KIZG 181051Z AUTO 00000KT 3/4SM BR VV002 M11/M12 A2992 RMK AO2 $ =
2018-01-18 05:49 METAR KIZG 181049Z AUTO 00000KT 1 1/2SM BR OVC002 M12/M12 A2992 RMK AO2 $ =
2018-01-18 05:40 METAR KIZG 181040Z AUTO 00000KT 3SM BR OVC002 M11/M12 A2992 RMK AO2 T11111117 $
                 =
2018-01-18 05:14 METAR KIZG 181014Z AUTO 22003KT 1 3/4SM BR OVC002 M11/M11 A2992 RMK AO2
                 T11111111 $ =
2018-01-18 04:54 METAR KIZG 180954Z AUTO 19003KT 10SM OVC002 M11/M12 A2992 RMK AO2 SLP141
                 T11111117 $ =
2018-01-18 04:35 METAR KIZG 180935Z AUTO 22003KT 6SM BR OVC002 M11/M12 A2992 RMK AO2 T11111117 $
                 =
2018-01-18 04:28 METAR KIZG 180928Z AUTO 19003KT 2SM BR OVC002 M11/M11 A2992 RMK AO2 VIS 3/4V5
                 T11061111 $ =
2018-01-18 04:22 METAR KIZG 180922Z AUTO 00000KT 1SM BR VV002 M11/M11 A2992 RMK AO2 T11111111 $ =
2018-01-18 04:15 METAR KIZG 180915Z AUTO 30004KT 1 1/2SM BR OVC002 M09/M09 A2992 RMK AO2
                 T10941094 $ =
2018-01-18 03:54 METAR KIZG 180854Z AUTO 30004KT 6SM BR BKN003 M09/M10 A2993 RMK AO2 SLP144
                 T10891100 56016 $ =
2018-01-18 03:45 METAR KIZG 180845Z AUTO 31004KT 10SM BKN003 M11/M12 A2994 RMK AO2 T11111117 $ =
2018-01-18 03:38 METAR KIZG 180838Z AUTO 31004KT 2SM BR BKN003 M11/M11 A2994 RMK AO2 T11111111 $
                 =
2018-01-18 03:35 METAR KIZG 180835Z AUTO 30003KT 1SM BR VV003 M11/M11 A2994 RMK AO2 T11111111 $ =
2018-01-18 03:18 METAR KIZG 180818Z AUTO 29003KT 1/4SM FZFG VV001 M12/M12 A2994 RMK AO2 T11171117
                 =
2018-01-18 03:13 METAR KIZG 180813Z AUTO 12003KT 1SM BR VV001 M11/M11 A2994 RMK AO2 T11061106 =
2018-01-18 02:54 METAR KIZG 180754Z AUTO 00000KT 10SM FEW007 M11/M11 A2994 RMK AO2 SLP149
                 T11111111 =

Support USWX by starting your Amazon purchase here.